sensor_id;sensor_type;location;lat;lon;timestamp;P1;durP1;ratioP1;P2;durP2;ratioP2
27161;SDS011;54464;50.558;9.704;2022-12-18T00:00:55;45.30;;;26.20;;
27161;SDS011;54464;50.558;9.704;2022-12-18T00:03:21;46.90;;;27.00;;
27161;SDS011;54464;50.558;9.704;2022-12-18T00:05:47;51.00;;;26.60;;
27161;SDS011;54464;50.558;9.704;2022-12-18T00:08:14;48.90;;;27.27;;
27161;SDS011;54464;50.558;9.704;2022-12-18T00:10:40;47.97;;;27.77;;
27161;SDS011;54464;50.558;9.704;2022-12-18T00:13:07;50.17;;;26.77;;
27161;SDS011;54464;50.558;9.704;2022-12-18T00:15:34;50.83;;;27.60;;
27161;SDS011;54464;50.558;9.704;2022-12-18T00:18:00;57.87;;;29.80;;
27161;SDS011;54464;50.558;9.704;2022-12-18T00:20:26;72.93;;;33.97;;
27161;SDS011;54464;50.558;9.704;2022-12-18T00:22:52;74.70;;;33.83;;
27161;SDS011;54464;50.558;9.704;2022-12-18T00:25:18;64.67;;;31.23;;
27161;SDS011;54464;50.558;9.704;2022-12-18T00:27:44;62.93;;;31.10;;
27161;SDS011;54464;50.558;9.704;2022-12-18T00:30:10;57.47;;;30.23;;
27161;SDS011;54464;50.558;9.704;2022-12-18T00:32:36;56.13;;;29.83;;
27161;SDS011;54464;50.558;9.704;2022-12-18T00:35:02;51.10;;;28.30;;
27161;SDS011;54464;50.558;9.704;2022-12-18T00:37:28;50.03;;;26.50;;
27161;SDS011;54464;50.558;9.704;2022-12-18T00:39:54;44.50;;;25.60;;
27161;SDS011;54464;50.558;9.704;2022-12-18T00:42:19;46.43;;;26.23;;
27161;SDS011;54464;50.558;9.704;2022-12-18T00:45:03;45.40;;;25.90;;
27161;SDS011;54464;50.558;9.704;2022-12-18T00:47:29;45.77;;;25.77;;
27161;SDS011;54464;50.558;9.704;2022-12-18T00:49:55;43.73;;;25.17;;
27161;SDS011;54464;50.558;9.704;2022-12-18T00:52:21;42.07;;;23.53;;
27161;SDS011;54464;50.558;9.704;2022-12-18T00:54:46;38.37;;;23.40;;
27161;SDS011;54464;50.558;9.704;2022-12-18T00:57:12;35.27;;;21.50;;
27161;SDS011;54464;50.558;9.704;2022-12-18T00:59:37;33.67;;;20.30;;
27161;SDS011;54464;50.558;9.704;2022-12-18T01:02:03;33.77;;;19.37;;
27161;SDS011;54464;50.558;9.704;2022-12-18T01:04:30;40.73;;;20.43;;
27161;SDS011;54464;50.558;9.704;2022-12-18T01:06:56;35.77;;;20.73;;
27161;SDS011;54464;50.558;9.704;2022-12-18T01:09:22;35.70;;;20.20;;
27161;SDS011;54464;50.558;9.704;2022-12-18T01:11:48;35.53;;;20.60;;
27161;SDS011;54464;50.558;9.704;2022-12-18T01:14:13;36.23;;;20.57;;
27161;SDS011;54464;50.558;9.704;2022-12-18T01:16:39;31.43;;;20.00;;
27161;SDS011;54464;50.558;9.704;2022-12-18T01:19:05;38.20;;;21.80;;
27161;SDS011;54464;50.558;9.704;2022-12-18T01:21:31;37.60;;;21.87;;
27161;SDS011;54464;50.558;9.704;2022-12-18T01:23:56;36.77;;;21.53;;
27161;SDS011;54464;50.558;9.704;2022-12-18T01:26:23;36.97;;;21.03;;
27161;SDS011;54464;50.558;9.704;2022-12-18T01:28:49;37.17;;;21.13;;
27161;SDS011;54464;50.558;9.704;2022-12-18T01:33:52;39.13;;;22.90;;
27161;SDS011;54464;50.558;9.704;2022-12-18T01:36:23;33.67;;;20.23;;
27161;SDS011;54464;50.558;9.704;2022-12-18T01:38:51;33.23;;;20.80;;
27161;SDS011;54464;50.558;9.704;2022-12-18T01:41:18;34.57;;;21.37;;
27161;SDS011;54464;50.558;9.704;2022-12-18T01:46:17;36.47;;;21.30;;
27161;SDS011;54464;50.558;9.704;2022-12-18T01:48:46;38.57;;;22.10;;
27161;SDS011;54464;50.558;9.704;2022-12-18T01:51:13;36.23;;;21.97;;
27161;SDS011;54464;50.558;9.704;2022-12-18T01:53:40;38.50;;;22.17;;
27161;SDS011;54464;50.558;9.704;2022-12-18T01:56:08;39.60;;;22.27;;
27161;SDS011;54464;50.558;9.704;2022-12-18T01:58:39;36.87;;;22.50;;
27161;SDS011;54464;50.558;9.704;2022-12-18T02:01:22;43.77;;;24.40;;
27161;SDS011;54464;50.558;9.704;2022-12-18T02:03:48;43.20;;;23.90;;
27161;SDS011;54464;50.558;9.704;2022-12-18T02:11:37;42.77;;;23.10;;
27161;SDS011;54464;50.558;9.704;2022-12-18T02:19:50;23.70;;;15.70;;
27161;SDS011;54464;50.558;9.704;2022-12-18T02:27:49;33.67;;;20.30;;
27161;SDS011;54464;50.558;9.704;2022-12-18T02:30:17;34.07;;;20.37;;
27161;SDS011;54464;50.558;9.704;2022-12-18T02:32:45;34.60;;;20.30;;
27161;SDS011;54464;50.558;9.704;2022-12-18T02:35:15;38.73;;;21.97;;
27161;SDS011;54464;50.558;9.704;2022-12-18T02:37:44;34.30;;;19.23;;
27161;SDS011;54464;50.558;9.704;2022-12-18T02:40:11;34.53;;;18.60;;
27161;SDS011;54464;50.558;9.704;2022-12-18T02:42:40;28.57;;;17.83;;
27161;SDS011;54464;50.558;9.704;2022-12-18T02:45:06;29.40;;;17.07;;
27161;SDS011;54464;50.558;9.704;2022-12-18T02:47:32;28.73;;;16.90;;
27161;SDS011;54464;50.558;9.704;2022-12-18T02:50:48;28.03;;;16.57;;
27161;SDS011;54464;50.558;9.704;2022-12-18T02:53:20;28.17;;;16.67;;
27161;SDS011;54464;50.558;9.704;2022-12-18T03:03:47;27.53;;;16.57;;
27161;SDS011;54464;50.558;9.704;2022-12-18T03:06:26;32.13;;;17.47;;
27161;SDS011;54464;50.558;9.704;2022-12-18T03:08:59;31.13;;;16.60;;
27161;SDS011;54464;50.558;9.704;2022-12-18T03:11:32;29.80;;;16.37;;
27161;SDS011;54464;50.558;9.704;2022-12-18T03:14:19;32.10;;;17.43;;
27161;SDS011;54464;50.558;9.704;2022-12-18T03:16:52;32.30;;;16.80;;
27161;SDS011;54464;50.558;9.704;2022-12-18T03:19:24;29.70;;;16.77;;
27161;SDS011;54464;50.558;9.704;2022-12-18T03:21:55;30.80;;;16.63;;
27161;SDS011;54464;50.558;9.704;2022-12-18T03:24:22;27.57;;;16.50;;
27161;SDS011;54464;50.558;9.704;2022-12-18T03:26:52;30.93;;;16.67;;
27161;SDS011;54464;50.558;9.704;2022-12-18T03:29:25;29.03;;;16.53;;
27161;SDS011;54464;50.558;9.704;2022-12-18T03:32:19;29.83;;;16.73;;
27161;SDS011;54464;50.558;9.704;2022-12-18T03:34:53;29.30;;;15.43;;
27161;SDS011;54464;50.558;9.704;2022-12-18T03:37:24;27.90;;;16.07;;
27161;SDS011;54464;50.558;9.704;2022-12-18T03:39:50;28.43;;;17.50;;
27161;SDS011;54464;50.558;9.704;2022-12-18T03:45:13;30.93;;;16.83;;
27161;SDS011;54464;50.558;9.704;2022-12-18T03:50:49;32.70;;;17.83;;
27161;SDS011;54464;50.558;9.704;2022-12-18T03:53:29;28.93;;;17.00;;
27161;SDS011;54464;50.558;9.704;2022-12-18T03:56:09;25.23;;;17.13;;
27161;SDS011;54464;50.558;9.704;2022-12-18T03:58:38;30.13;;;18.07;;
27161;SDS011;54464;50.558;9.704;2022-12-18T04:01:09;30.43;;;18.17;;
27161;SDS011;54464;50.558;9.704;2022-12-18T04:03:38;33.00;;;16.70;;
27161;SDS011;54464;50.558;9.704;2022-12-18T04:06:05;29.37;;;17.50;;
27161;SDS011;54464;50.558;9.704;2022-12-18T04:08:32;31.10;;;17.00;;
27161;SDS011;54464;50.558;9.704;2022-12-18T04:10:59;33.20;;;17.27;;
27161;SDS011;54464;50.558;9.704;2022-12-18T04:13:31;33.50;;;17.57;;
27161;SDS011;54464;50.558;9.704;2022-12-18T04:15:59;29.40;;;16.83;;
27161;SDS011;54464;50.558;9.704;2022-12-18T04:18:26;29.67;;;16.93;;
27161;SDS011;54464;50.558;9.704;2022-12-18T04:20:51;29.23;;;17.97;;
27161;SDS011;54464;50.558;9.704;2022-12-18T04:23:17;33.60;;;18.00;;
27161;SDS011;54464;50.558;9.704;2022-12-18T04:25:43;27.10;;;16.87;;
27161;SDS011;54464;50.558;9.704;2022-12-18T04:28:08;31.30;;;18.33;;
27161;SDS011;54464;50.558;9.704;2022-12-18T04:30:34;32.43;;;18.27;;
27161;SDS011;54464;50.558;9.704;2022-12-18T04:33:00;29.67;;;16.63;;
27161;SDS011;54464;50.558;9.704;2022-12-18T04:35:25;24.10;;;14.50;;
27161;SDS011;54464;50.558;9.704;2022-12-18T04:37:51;26.03;;;15.27;;
27161;SDS011;54464;50.558;9.704;2022-12-18T04:40:17;24.10;;;15.23;;
27161;SDS011;54464;50.558;9.704;2022-12-18T04:42:42;25.67;;;14.90;;
27161;SDS011;54464;50.558;9.704;2022-12-18T04:45:08;25.43;;;14.37;;
27161;SDS011;54464;50.558;9.704;2022-12-18T04:47:34;24.33;;;14.70;;
27161;SDS011;54464;50.558;9.704;2022-12-18T04:50:00;24.43;;;15.40;;
27161;SDS011;54464;50.558;9.704;2022-12-18T04:52:25;26.13;;;14.90;;
27161;SDS011;54464;50.558;9.704;2022-12-18T04:54:51;26.43;;;15.63;;
27161;SDS011;54464;50.558;9.704;2022-12-18T04:57:17;28.23;;;14.57;;
27161;SDS011;54464;50.558;9.704;2022-12-18T04:59:45;27.27;;;14.30;;
27161;SDS011;54464;50.558;9.704;2022-12-18T05:02:13;24.70;;;13.90;;
27161;SDS011;54464;50.558;9.704;2022-12-18T05:04:39;26.97;;;14.50;;
27161;SDS011;54464;50.558;9.704;2022-12-18T05:07:05;25.27;;;14.87;;
27161;SDS011;54464;50.558;9.704;2022-12-18T05:09:30;24.20;;;15.17;;
27161;SDS011;54464;50.558;9.704;2022-12-18T05:11:56;25.60;;;15.00;;
27161;SDS011;54464;50.558;9.704;2022-12-18T05:14:22;24.37;;;15.33;;
27161;SDS011;54464;50.558;9.704;2022-12-18T05:16:48;26.27;;;15.33;;
27161;SDS011;54464;50.558;9.704;2022-12-18T05:19:13;24.47;;;15.30;;
27161;SDS011;54464;50.558;9.704;2022-12-18T05:21:39;27.27;;;15.80;;
27161;SDS011;54464;50.558;9.704;2022-12-18T05:24:05;26.83;;;14.90;;
27161;SDS011;54464;50.558;9.704;2022-12-18T05:26:31;25.30;;;15.67;;
27161;SDS011;54464;50.558;9.704;2022-12-18T05:28:56;25.13;;;15.00;;
27161;SDS011;54464;50.558;9.704;2022-12-18T05:31:22;27.13;;;15.83;;
27161;SDS011;54464;50.558;9.704;2022-12-18T05:33:50;30.27;;;16.50;;
27161;SDS011;54464;50.558;9.704;2022-12-18T05:36:16;26.83;;;15.83;;
27161;SDS011;54464;50.558;9.704;2022-12-18T05:38:42;29.47;;;16.17;;
27161;SDS011;54464;50.558;9.704;2022-12-18T05:41:08;27.27;;;16.80;;
27161;SDS011;54464;50.558;9.704;2022-12-18T05:43:35;32.20;;;16.43;;
27161;SDS011;54464;50.558;9.704;2022-12-18T05:46:05;29.97;;;16.40;;
27161;SDS011;54464;50.558;9.704;2022-12-18T05:48:37;30.23;;;16.43;;
27161;SDS011;54464;50.558;9.704;2022-12-18T05:51:04;29.57;;;17.43;;
27161;SDS011;54464;50.558;9.704;2022-12-18T05:53:35;26.80;;;15.97;;
27161;SDS011;54464;50.558;9.704;2022-12-18T05:56:02;29.07;;;15.97;;
27161;SDS011;54464;50.558;9.704;2022-12-18T05:58:32;26.87;;;16.20;;
27161;SDS011;54464;50.558;9.704;2022-12-18T06:00:58;34.57;;;18.00;;
27161;SDS011;54464;50.558;9.704;2022-12-18T06:03:35;31.70;;;17.23;;
27161;SDS011;54464;50.558;9.704;2022-12-18T06:06:01;32.83;;;17.67;;
27161;SDS011;54464;50.558;9.704;2022-12-18T06:08:26;30.60;;;17.00;;
27161;SDS011;54464;50.558;9.704;2022-12-18T06:10:52;32.67;;;19.00;;
27161;SDS011;54464;50.558;9.704;2022-12-18T06:13:18;34.63;;;18.77;;
27161;SDS011;54464;50.558;9.704;2022-12-18T06:15:44;32.37;;;17.40;;
27161;SDS011;54464;50.558;9.704;2022-12-18T06:18:10;36.33;;;18.73;;
27161;SDS011;54464;50.558;9.704;2022-12-18T06:20:36;30.20;;;16.70;;
27161;SDS011;54464;50.558;9.704;2022-12-18T06:23:04;28.97;;;16.90;;
27161;SDS011;54464;50.558;9.704;2022-12-18T06:25:30;30.30;;;16.47;;
27161;SDS011;54464;50.558;9.704;2022-12-18T06:27:57;28.50;;;17.57;;
27161;SDS011;54464;50.558;9.704;2022-12-18T06:30:25;31.87;;;16.57;;
27161;SDS011;54464;50.558;9.704;2022-12-18T06:32:51;32.83;;;17.67;;
27161;SDS011;54464;50.558;9.704;2022-12-18T06:35:17;33.87;;;16.73;;
27161;SDS011;54464;50.558;9.704;2022-12-18T06:37:45;32.97;;;16.13;;
27161;SDS011;54464;50.558;9.704;2022-12-18T06:40:11;35.10;;;17.07;;
27161;SDS011;54464;50.558;9.704;2022-12-18T06:42:36;29.63;;;16.73;;
27161;SDS011;54464;50.558;9.704;2022-12-18T06:45:02;28.30;;;16.40;;
27161;SDS011;54464;50.558;9.704;2022-12-18T06:47:28;30.67;;;17.33;;
27161;SDS011;54464;50.558;9.704;2022-12-18T06:49:54;32.17;;;17.67;;
27161;SDS011;54464;50.558;9.704;2022-12-18T06:52:19;29.33;;;17.13;;
27161;SDS011;54464;50.558;9.704;2022-12-18T06:54:45;30.27;;;16.10;;
27161;SDS011;54464;50.558;9.704;2022-12-18T06:57:10;24.93;;;15.00;;
27161;SDS011;54464;50.558;9.704;2022-12-18T06:59:36;29.67;;;17.03;;
27161;SDS011;54464;50.558;9.704;2022-12-18T07:02:01;28.23;;;15.30;;
27161;SDS011;54464;50.558;9.704;2022-12-18T07:04:30;25.17;;;15.93;;
27161;SDS011;54464;50.558;9.704;2022-12-18T07:06:56;30.23;;;16.67;;
27161;SDS011;54464;50.558;9.704;2022-12-18T07:09:22;30.03;;;17.67;;
27161;SDS011;54464;50.558;9.704;2022-12-18T07:11:48;27.20;;;16.23;;
27161;SDS011;54464;50.558;9.704;2022-12-18T07:14:14;28.10;;;17.17;;
27161;SDS011;54464;50.558;9.704;2022-12-18T07:16:40;27.27;;;15.57;;
27161;SDS011;54464;50.558;9.704;2022-12-18T07:19:05;31.07;;;16.03;;
27161;SDS011;54464;50.558;9.704;2022-12-18T07:21:31;27.13;;;15.27;;
27161;SDS011;54464;50.558;9.704;2022-12-18T07:23:57;29.50;;;17.23;;
27161;SDS011;54464;50.558;9.704;2022-12-18T07:26:23;28.17;;;15.90;;
27161;SDS011;54464;50.558;9.704;2022-12-18T07:28:49;31.17;;;16.80;;
27161;SDS011;54464;50.558;9.704;2022-12-18T07:31:16;28.63;;;16.00;;
27161;SDS011;54464;50.558;9.704;2022-12-18T07:33:43;29.40;;;15.67;;
27161;SDS011;54464;50.558;9.704;2022-12-18T07:36:10;37.80;;;18.40;;
27161;SDS011;54464;50.558;9.704;2022-12-18T07:38:36;52.27;;;20.30;;
27161;SDS011;54464;50.558;9.704;2022-12-18T07:41:05;245.37;;;27.30;;
27161;SDS011;54464;50.558;9.704;2022-12-18T07:43:33;172.10;;;27.13;;
27161;SDS011;54464;50.558;9.704;2022-12-18T07:45:59;89.97;;;23.73;;
27161;SDS011;54464;50.558;9.704;2022-12-18T07:48:25;36.10;;;19.70;;
27161;SDS011;54464;50.558;9.704;2022-12-18T07:50:52;41.73;;;22.73;;
27161;SDS011;54464;50.558;9.704;2022-12-18T07:53:18;138.93;;;29.23;;
27161;SDS011;54464;50.558;9.704;2022-12-18T07:55:43;66.30;;;25.03;;
27161;SDS011;54464;50.558;9.704;2022-12-18T07:58:09;289.43;;;32.67;;
27161;SDS011;54464;50.558;9.704;2022-12-18T08:00:35;145.43;;;30.50;;
27161;SDS011;54464;50.558;9.704;2022-12-18T08:03:01;233.60;;;32.73;;
27161;SDS011;54464;50.558;9.704;2022-12-18T08:05:27;70.33;;;24.47;;
27161;SDS011;54464;50.558;9.704;2022-12-18T08:07:52;47.87;;;23.50;;
27161;SDS011;54464;50.558;9.704;2022-12-18T08:10:19;45.03;;;23.60;;
27161;SDS011;54464;50.558;9.704;2022-12-18T08:12:45;40.90;;;22.47;;
27161;SDS011;54464;50.558;9.704;2022-12-18T08:15:14;44.73;;;21.90;;
27161;SDS011;54464;50.558;9.704;2022-12-18T08:17:40;43.47;;;23.77;;
27161;SDS011;54464;50.558;9.704;2022-12-18T08:20:06;43.70;;;21.87;;
27161;SDS011;54464;50.558;9.704;2022-12-18T08:22:33;43.90;;;23.17;;
27161;SDS011;54464;50.558;9.704;2022-12-18T08:25:00;49.13;;;24.57;;
27161;SDS011;54464;50.558;9.704;2022-12-18T08:27:26;43.53;;;22.53;;
27161;SDS011;54464;50.558;9.704;2022-12-18T08:29:52;44.37;;;22.77;;
27161;SDS011;54464;50.558;9.704;2022-12-18T08:32:17;38.70;;;21.20;;
27161;SDS011;54464;50.558;9.704;2022-12-18T08:34:43;39.47;;;21.87;;
27161;SDS011;54464;50.558;9.704;2022-12-18T08:37:08;39.03;;;22.70;;
27161;SDS011;54464;50.558;9.704;2022-12-18T08:39:37;44.07;;;25.63;;
27161;SDS011;54464;50.558;9.704;2022-12-18T08:42:03;45.60;;;23.60;;
27161;SDS011;54464;50.558;9.704;2022-12-18T08:44:47;45.80;;;23.60;;
27161;SDS011;54464;50.558;9.704;2022-12-18T08:47:13;44.23;;;22.47;;
27161;SDS011;54464;50.558;9.704;2022-12-18T08:49:38;45.33;;;22.33;;
27161;SDS011;54464;50.558;9.704;2022-12-18T08:52:05;44.10;;;21.87;;
27161;SDS011;54464;50.558;9.704;2022-12-18T08:54:31;48.53;;;22.87;;
27161;SDS011;54464;50.558;9.704;2022-12-18T08:56:56;53.00;;;23.53;;
27161;SDS011;54464;50.558;9.704;2022-12-18T08:59:22;46.50;;;23.20;;
27161;SDS011;54464;50.558;9.704;2022-12-18T09:01:48;49.10;;;24.70;;
27161;SDS011;54464;50.558;9.704;2022-12-18T09:04:14;42.77;;;23.90;;
27161;SDS011;54464;50.558;9.704;2022-12-18T09:06:40;51.73;;;24.20;;
27161;SDS011;54464;50.558;9.704;2022-12-18T09:09:05;47.03;;;25.13;;
27161;SDS011;54464;50.558;9.704;2022-12-18T09:11:31;41.83;;;22.77;;
27161;SDS011;54464;50.558;9.704;2022-12-18T09:13:58;48.70;;;23.47;;
27161;SDS011;54464;50.558;9.704;2022-12-18T09:16:26;43.13;;;22.83;;
27161;SDS011;54464;50.558;9.704;2022-12-18T09:18:53;32.87;;;18.70;;
27161;SDS011;54464;50.558;9.704;2022-12-18T09:21:25;36.20;;;19.73;;
27161;SDS011;54464;50.558;9.704;2022-12-18T09:23:51;37.00;;;20.47;;
27161;SDS011;54464;50.558;9.704;2022-12-18T09:26:19;41.53;;;24.07;;
27161;SDS011;54464;50.558;9.704;2022-12-18T09:28:45;37.47;;;22.77;;
27161;SDS011;54464;50.558;9.704;2022-12-18T09:31:11;37.97;;;22.13;;
27161;SDS011;54464;50.558;9.704;2022-12-18T09:33:41;43.03;;;24.67;;
27161;SDS011;54464;50.558;9.704;2022-12-18T09:36:07;43.27;;;26.10;;
27161;SDS011;54464;50.558;9.704;2022-12-18T09:38:34;54.20;;;34.07;;
27161;SDS011;54464;50.558;9.704;2022-12-18T09:41:18;47.60;;;28.10;;
27161;SDS011;54464;50.558;9.704;2022-12-18T09:43:57;42.43;;;24.90;;
27161;SDS011;54464;50.558;9.704;2022-12-18T09:46:30;41.10;;;23.67;;
27161;SDS011;54464;50.558;9.704;2022-12-18T09:49:01;38.03;;;22.50;;
27161;SDS011;54464;50.558;9.704;2022-12-18T09:51:32;39.27;;;21.57;;
27161;SDS011;54464;50.558;9.704;2022-12-18T09:54:03;36.70;;;22.30;;
27161;SDS011;54464;50.558;9.704;2022-12-18T09:56:34;36.80;;;22.20;;
27161;SDS011;54464;50.558;9.704;2022-12-18T09:59:04;35.57;;;21.30;;
27161;SDS011;54464;50.558;9.704;2022-12-18T10:01:31;36.00;;;20.73;;
27161;SDS011;54464;50.558;9.704;2022-12-18T10:03:57;36.23;;;19.90;;
27161;SDS011;54464;50.558;9.704;2022-12-18T10:12:14;37.30;;;20.43;;
27161;SDS011;54464;50.558;9.704;2022-12-18T10:17:58;37.53;;;21.87;;
27161;SDS011;54464;50.558;9.704;2022-12-18T10:20:39;37.10;;;20.67;;
27161;SDS011;54464;50.558;9.704;2022-12-18T10:26:08;39.20;;;22.33;;
27161;SDS011;54464;50.558;9.704;2022-12-18T10:28:39;39.80;;;23.23;;
27161;SDS011;54464;50.558;9.704;2022-12-18T10:31:07;36.80;;;22.70;;
27161;SDS011;54464;50.558;9.704;2022-12-18T10:33:40;37.53;;;23.80;;
27161;SDS011;54464;50.558;9.704;2022-12-18T10:36:06;38.83;;;23.80;;
27161;SDS011;54464;50.558;9.704;2022-12-18T10:38:32;39.83;;;24.57;;
27161;SDS011;54464;50.558;9.704;2022-12-18T10:41:02;40.33;;;23.30;;
27161;SDS011;54464;50.558;9.704;2022-12-18T10:44:10;37.27;;;23.93;;
27161;SDS011;54464;50.558;9.704;2022-12-18T10:46:37;41.63;;;24.47;;
27161;SDS011;54464;50.558;9.704;2022-12-18T10:49:03;45.50;;;26.43;;
27161;SDS011;54464;50.558;9.704;2022-12-18T10:54:02;43.33;;;26.47;;
27161;SDS011;54464;50.558;9.704;2022-12-18T10:56:30;47.80;;;27.23;;
27161;SDS011;54464;50.558;9.704;2022-12-18T10:59:05;44.27;;;26.53;;
27161;SDS011;54464;50.558;9.704;2022-12-18T11:01:51;41.43;;;26.67;;
27161;SDS011;54464;50.558;9.704;2022-12-18T11:04:26;46.90;;;27.70;;
27161;SDS011;54464;50.558;9.704;2022-12-18T11:09:25;41.77;;;25.37;;
27161;SDS011;54464;50.558;9.704;2022-12-18T11:11:53;42.00;;;25.27;;
27161;SDS011;54464;50.558;9.704;2022-12-18T11:14:32;46.23;;;28.33;;
27161;SDS011;54464;50.558;9.704;2022-12-18T11:17:16;43.47;;;27.43;;
27161;SDS011;54464;50.558;9.704;2022-12-18T11:19:55;40.83;;;26.30;;
27161;SDS011;54464;50.558;9.704;2022-12-18T11:22:35;46.77;;;27.20;;
27161;SDS011;54464;50.558;9.704;2022-12-18T11:30:50;36.83;;;24.10;;
27161;SDS011;54464;50.558;9.704;2022-12-18T11:33:56;35.43;;;23.87;;
27161;SDS011;54464;50.558;9.704;2022-12-18T11:36:31;38.07;;;24.03;;
27161;SDS011;54464;50.558;9.704;2022-12-18T11:39:02;39.93;;;25.47;;
27161;SDS011;54464;50.558;9.704;2022-12-18T11:41:53;41.40;;;27.03;;
27161;SDS011;54464;50.558;9.704;2022-12-18T11:44:44;42.27;;;26.33;;
27161;SDS011;54464;50.558;9.704;2022-12-18T11:50:03;43.23;;;28.87;;
27161;SDS011;54464;50.558;9.704;2022-12-18T11:52:39;43.10;;;28.97;;
27161;SDS011;54464;50.558;9.704;2022-12-18T11:55:15;44.87;;;28.67;;
27161;SDS011;54464;50.558;9.704;2022-12-18T12:00:28;42.90;;;27.13;;
27161;SDS011;54464;50.558;9.704;2022-12-18T12:06:15;38.13;;;24.90;;
27161;SDS011;54464;50.558;9.704;2022-12-18T12:12:09;37.63;;;24.20;;
27161;SDS011;54464;50.558;9.704;2022-12-18T12:14:57;38.20;;;25.37;;
27161;SDS011;54464;50.558;9.704;2022-12-18T12:17:42;40.97;;;25.43;;
27161;SDS011;54464;50.558;9.704;2022-12-18T12:20:29;42.57;;;28.50;;
27161;SDS011;54464;50.558;9.704;2022-12-18T12:23:06;51.90;;;35.57;;
27161;SDS011;54464;50.558;9.704;2022-12-18T12:34:32;42.33;;;27.80;;
27161;SDS011;54464;50.558;9.704;2022-12-18T12:39:55;38.87;;;26.10;;
27161;SDS011;54464;50.558;9.704;2022-12-18T12:45:18;42.47;;;28.03;;
27161;SDS011;54464;50.558;9.704;2022-12-18T12:47:55;44.47;;;29.03;;
27161;SDS011;54464;50.558;9.704;2022-12-18T12:50:24;41.50;;;27.87;;
27161;SDS011;54464;50.558;9.704;2022-12-18T12:52:51;42.07;;;28.20;;
27161;SDS011;54464;50.558;9.704;2022-12-18T12:55:21;43.07;;;28.27;;
27161;SDS011;54464;50.558;9.704;2022-12-18T12:58:02;39.40;;;26.63;;
27161;SDS011;54464;50.558;9.704;2022-12-18T13:00:53;42.60;;;28.07;;
27161;SDS011;54464;50.558;9.704;2022-12-18T13:08:58;41.37;;;28.13;;
27161;SDS011;54464;50.558;9.704;2022-12-18T13:14:22;40.83;;;27.73;;
27161;SDS011;54464;50.558;9.704;2022-12-18T13:20:14;42.07;;;28.07;;
27161;SDS011;54464;50.558;9.704;2022-12-18T13:22:49;39.43;;;26.47;;
27161;SDS011;54464;50.558;9.704;2022-12-18T13:28:05;39.03;;;25.00;;
27161;SDS011;54464;50.558;9.704;2022-12-18T13:35:39;39.23;;;24.67;;
27161;SDS011;54464;50.558;9.704;2022-12-18T13:41:26;39.30;;;24.60;;
27161;SDS011;54464;50.558;9.704;2022-12-18T13:43:57;36.77;;;24.67;;
27161;SDS011;54464;50.558;9.704;2022-12-18T13:46:55;31.03;;;21.00;;
27161;SDS011;54464;50.558;9.704;2022-12-18T13:52:02;31.80;;;21.73;;
27161;SDS011;54464;50.558;9.704;2022-12-18T13:54:59;33.47;;;21.17;;
27161;SDS011;54464;50.558;9.704;2022-12-18T13:57:28;31.40;;;20.30;;
27161;SDS011;54464;50.558;9.704;2022-12-18T13:59:56;31.70;;;21.47;;
27161;SDS011;54464;50.558;9.704;2022-12-18T14:02:24;28.10;;;19.23;;
27161;SDS011;54464;50.558;9.704;2022-12-18T14:04:51;28.37;;;20.50;;
27161;SDS011;54464;50.558;9.704;2022-12-18T14:09:49;25.70;;;17.23;;
27161;SDS011;54464;50.558;9.704;2022-12-18T14:12:32;25.80;;;17.03;;
27161;SDS011;54464;50.558;9.704;2022-12-18T14:17:54;29.40;;;19.53;;
27161;SDS011;54464;50.558;9.704;2022-12-18T14:20:24;30.20;;;20.10;;
27161;SDS011;54464;50.558;9.704;2022-12-18T14:22:51;29.57;;;19.57;;
27161;SDS011;54464;50.558;9.704;2022-12-18T14:25:18;30.83;;;20.07;;
27161;SDS011;54464;50.558;9.704;2022-12-18T14:30:28;25.43;;;16.20;;
27161;SDS011;54464;50.558;9.704;2022-12-18T14:33:02;27.50;;;16.80;;
27161;SDS011;54464;50.558;9.704;2022-12-18T14:35:39;28.87;;;18.23;;
27161;SDS011;54464;50.558;9.704;2022-12-18T14:38:10;27.73;;;17.17;;
27161;SDS011;54464;50.558;9.704;2022-12-18T14:40:43;29.43;;;17.10;;
27161;SDS011;54464;50.558;9.704;2022-12-18T14:43:10;28.50;;;18.53;;
27161;SDS011;54464;50.558;9.704;2022-12-18T14:45:36;28.50;;;17.47;;
27161;SDS011;54464;50.558;9.704;2022-12-18T14:48:17;30.77;;;19.00;;
27161;SDS011;54464;50.558;9.704;2022-12-18T14:50:43;27.90;;;17.17;;
27161;SDS011;54464;50.558;9.704;2022-12-18T14:56:13;31.37;;;18.50;;
27161;SDS011;54464;50.558;9.704;2022-12-18T14:58:49;28.70;;;17.70;;
27161;SDS011;54464;50.558;9.704;2022-12-18T15:01:19;30.87;;;17.40;;
27161;SDS011;54464;50.558;9.704;2022-12-18T15:03:52;32.10;;;17.80;;
27161;SDS011;54464;50.558;9.704;2022-12-18T15:06:24;30.57;;;18.50;;
27161;SDS011;54464;50.558;9.704;2022-12-18T15:09:00;29.37;;;17.37;;
27161;SDS011;54464;50.558;9.704;2022-12-18T15:11:29;30.30;;;16.90;;
27161;SDS011;54464;50.558;9.704;2022-12-18T15:14:20;28.20;;;16.50;;
27161;SDS011;54464;50.558;9.704;2022-12-18T15:17:14;26.73;;;16.27;;
27161;SDS011;54464;50.558;9.704;2022-12-18T15:19:44;31.00;;;16.83;;
27161;SDS011;54464;50.558;9.704;2022-12-18T15:24:51;27.40;;;16.07;;
27161;SDS011;54464;50.558;9.704;2022-12-18T15:32:33;27.67;;;16.73;;
27161;SDS011;54464;50.558;9.704;2022-12-18T15:37:50;27.37;;;15.87;;
27161;SDS011;54464;50.558;9.704;2022-12-18T15:40:18;30.83;;;17.43;;
27161;SDS011;54464;50.558;9.704;2022-12-18T15:42:46;33.37;;;17.27;;
27161;SDS011;54464;50.558;9.704;2022-12-18T15:45:31;35.47;;;18.43;;
27161;SDS011;54464;50.558;9.704;2022-12-18T15:47:57;31.17;;;18.23;;
27161;SDS011;54464;50.558;9.704;2022-12-18T15:50:23;33.40;;;18.63;;
27161;SDS011;54464;50.558;9.704;2022-12-18T15:52:49;35.17;;;19.47;;
27161;SDS011;54464;50.558;9.704;2022-12-18T15:55:18;35.80;;;20.67;;
27161;SDS011;54464;50.558;9.704;2022-12-18T15:58:06;36.10;;;21.43;;
27161;SDS011;54464;50.558;9.704;2022-12-18T16:00:41;37.30;;;21.13;;
27161;SDS011;54464;50.558;9.704;2022-12-18T16:03:08;33.13;;;20.17;;
27161;SDS011;54464;50.558;9.704;2022-12-18T16:05:34;33.57;;;20.30;;
27161;SDS011;54464;50.558;9.704;2022-12-18T16:08:02;37.93;;;21.07;;
27161;SDS011;54464;50.558;9.704;2022-12-18T16:10:28;33.30;;;20.67;;
27161;SDS011;54464;50.558;9.704;2022-12-18T16:12:53;31.97;;;19.47;;
27161;SDS011;54464;50.558;9.704;2022-12-18T16:15:19;34.90;;;19.80;;
27161;SDS011;54464;50.558;9.704;2022-12-18T16:17:45;34.17;;;21.80;;
27161;SDS011;54464;50.558;9.704;2022-12-18T16:20:15;38.43;;;22.23;;
27161;SDS011;54464;50.558;9.704;2022-12-18T16:22:43;35.97;;;22.67;;
27161;SDS011;54464;50.558;9.704;2022-12-18T16:27:42;40.23;;;22.83;;
27161;SDS011;54464;50.558;9.704;2022-12-18T16:30:12;39.27;;;23.17;;
27161;SDS011;54464;50.558;9.704;2022-12-18T16:32:42;33.03;;;21.27;;
27161;SDS011;54464;50.558;9.704;2022-12-18T16:35:12;35.50;;;21.67;;
27161;SDS011;54464;50.558;9.704;2022-12-18T16:37:39;33.30;;;19.93;;
27161;SDS011;54464;50.558;9.704;2022-12-18T16:40:06;44.00;;;25.27;;
27161;SDS011;54464;50.558;9.704;2022-12-18T16:42:34;31.77;;;19.50;;
27161;SDS011;54464;50.558;9.704;2022-12-18T16:45:01;35.53;;;19.90;;
27161;SDS011;54464;50.558;9.704;2022-12-18T16:47:27;32.43;;;18.07;;
27161;SDS011;54464;50.558;9.704;2022-12-18T16:49:52;30.83;;;18.17;;